createdAt,value
2019-03-09T00:02:16.490Z,97218.52
2019-03-09T00:04:47.779Z,97216.38
2019-03-09T00:07:19.015Z,97223.34
2019-03-09T00:09:50.293Z,97226.07
2019-03-09T00:12:21.609Z,97225.42
2019-03-09T00:14:52.843Z,97232.53
2019-03-09T00:17:24.161Z,97224.23
2019-03-09T00:19:58.010Z,97240.17
2019-03-09T00:22:29.326Z,97231.61
2019-03-09T00:25:23.226Z,97231.33
2019-03-09T00:28:04.359Z,97236.55
2019-03-09T00:30:46.627Z,97238.93
2019-03-09T00:33:18.867Z,97229.36
2019-03-09T00:35:50.471Z,97225.77
2019-03-09T00:38:21.726Z,97234.29
2019-03-09T00:40:52.957Z,97221.32
2019-03-09T00:43:24.147Z,97221.67
2019-03-09T00:45:56.773Z,97218.48
2019-03-09T00:48:28.175Z,97223.12
2019-03-09T00:50:59.490Z,97214.66
2019-03-09T00:53:30.804Z,97214.66
2019-03-09T00:56:02.403Z,97208.16
2019-03-09T00:58:33.895Z,97212.28
2019-03-09T01:01:05.939Z,97209.16
2019-03-09T01:03:37.244Z,97198.49
2019-03-09T01:06:08.970Z,97195.38
2019-03-09T01:08:41.331Z,97181.37
2019-03-09T01:11:12.639Z,97174.09
2019-03-09T01:13:43.822Z,97181.12
2019-03-09T01:16:15.296Z,97181.98
2019-03-09T01:18:46.916Z,97191.81
2019-03-09T01:21:18.126Z,97183.56
2019-03-09T01:23:49.836Z,97180.50
2019-03-09T01:26:21.134Z,97176.05
2019-03-09T01:28:52.450Z,97179.25
2019-03-09T01:31:23.829Z,97175.05
2019-03-09T01:33:55.053Z,97172.27
2019-03-09T01:36:26.363Z,97159.81
2019-03-09T01:38:57.606Z,97162.30
2019-03-09T01:41:28.968Z,97161.52
2019-03-09T01:44:00.203Z,97153.55
2019-03-09T01:46:31.427Z,97147.53
2019-03-09T01:49:02.683Z,97148.32
2019-03-09T01:51:34.263Z,97151.46
2019-03-09T01:54:05.774Z,97151.12
2019-03-09T01:56:36.937Z,97135.48
2019-03-09T01:59:08.187Z,97144.69
2019-03-09T02:01:39.502Z,97130.94
2019-03-09T02:04:10.819Z,97124.93
2019-03-09T02:06:42.314Z,97130.13
2019-03-09T02:09:13.731Z,97126.06
2019-03-09T02:11:45.195Z,97113.41
2019-03-09T02:14:16.499Z,97099.77
2019-03-09T02:16:48.145Z,97107.39
2019-03-09T02:19:19.447Z,97105.78
2019-03-09T02:21:50.770Z,97104.80
2019-03-09T02:24:21.924Z,97097.69
2019-03-09T02:26:53.107Z,97096.69
2019-03-09T02:29:24.296Z,97100.73
2019-03-09T02:31:55.465Z,97092.90
2019-03-09T02:34:26.741Z,97094.75
2019-03-09T02:36:58.335Z,97101.23
2019-03-09T02:39:49.840Z,97091.06
2019-03-09T02:42:21.146Z,97092.09
2019-03-09T02:44:52.324Z,97094.81
2019-03-09T02:47:23.481Z,97091.19
2019-03-09T02:49:55.479Z,97092.19
2019-03-09T02:52:26.810Z,97083.34
2019-03-09T02:54:58.212Z,97088.38
2019-03-09T02:57:29.425Z,97080.66
2019-03-09T03:00:01.412Z,97083.12
2019-03-09T03:02:43.935Z,97082.20
2019-03-09T03:05:16.573Z,97071.31
2019-03-09T03:07:47.806Z,97074.47
2019-03-09T03:10:19.486Z,97070.73
2019-03-09T03:12:51.854Z,97062.60
2019-03-09T03:15:33.408Z,97066.41
2019-03-09T03:18:05.144Z,97054.94
2019-03-09T03:20:36.394Z,97051.66
2019-03-09T03:23:08.002Z,97055.34
2019-03-09T03:25:39.343Z,97044.26
2019-03-09T03:28:11.069Z,97032.98
2019-03-09T03:30:42.489Z,97021.09
2019-03-09T03:33:13.766Z,97019.91
2019-03-09T03:35:45.390Z,97028.28
2019-03-09T03:38:16.655Z,97022.08
2019-03-09T03:40:48.396Z,97015.23
2019-03-09T03:43:19.633Z,97015.07
2019-03-09T03:45:51.391Z,97014.94
2019-03-09T03:48:22.815Z,97009.44
2019-03-09T03:50:54.309Z,97008.47
2019-03-09T03:53:25.697Z,97011.32
2019-03-09T03:55:57.088Z,97005.36
2019-03-09T03:58:28.408Z,96996.73
2019-03-09T04:00:59.825Z,96987.22
2019-03-09T04:03:31.329Z,96991.66
2019-03-09T04:06:02.932Z,96986.63
2019-03-09T04:08:34.615Z,96992.23
2019-03-09T04:11:06.365Z,96985.86
2019-03-09T04:13:37.741Z,96981.38
2019-03-09T04:16:09.157Z,96977.77
2019-03-09T04:18:40.399Z,96984.29
2019-03-09T04:21:12.809Z,96988.66
2019-03-09T04:23:44.070Z,96977.18
2019-03-09T04:26:15.251Z,96969.97
2019-03-09T04:28:46.668Z,96978.09
2019-03-09T04:31:17.939Z,96970.75
2019-03-09T04:33:49.617Z,96966.15
2019-03-09T04:36:21.294Z,96966.52
2019-03-09T04:38:52.786Z,96973.27
2019-03-09T04:41:24.046Z,96966.92
2019-03-09T04:43:55.449Z,96960.91
2019-03-09T04:46:27.021Z,96954.66
2019-03-09T04:48:58.347Z,96953.29
2019-03-09T04:51:29.932Z,96945.23
2019-03-09T04:54:01.244Z,96955.73
2019-03-09T04:56:32.500Z,96959.18
2019-03-09T04:59:04.118Z,96942.03
2019-03-09T05:01:35.356Z,96933.36
2019-03-09T05:04:58.968Z,96930.85
2019-03-09T05:07:49.886Z,96937.91
2019-03-09T05:10:54.272Z,96924.08
2019-03-09T05:13:56.747Z,96916.34
2019-03-09T05:16:27.922Z,96904.95
2019-03-09T05:18:59.109Z,96892.92
2019-03-09T05:21:30.566Z,96890.91
2019-03-09T05:24:01.924Z,96887.61
2019-03-09T05:26:33.177Z,96897.23
2019-03-09T05:29:04.526Z,96895.86
2019-03-09T05:31:36.439Z,96888.03
2019-03-09T05:34:07.938Z,96889.52
2019-03-09T05:36:39.509Z,96881.96
2019-03-09T05:39:10.953Z,96876.34
2019-03-09T05:41:42.271Z,96878.78
2019-03-09T05:44:13.936Z,96878.51
2019-03-09T05:46:45.248Z,96881.03
2019-03-09T05:49:16.905Z,96878.15
2019-03-09T05:52:32.007Z,96869.54
2019-03-09T05:55:21.182Z,96879.77
2019-03-09T05:57:52.526Z,96872.50
2019-03-09T06:00:23.950Z,96876.91
2019-03-09T06:02:55.344Z,96876.87
2019-03-09T06:05:45.591Z,96880.81
2019-03-09T06:08:17.267Z,96874.97
2019-03-09T06:10:48.918Z,96885.53
2019-03-09T06:13:20.274Z,96877.64
2019-03-09T06:15:51.619Z,96882.28
2019-03-09T06:18:22.875Z,96884.04
2019-03-09T06:20:54.070Z,96892.69
2019-03-09T06:23:26.051Z,96883.22
2019-03-09T06:25:57.432Z,96895.67
2019-03-09T06:28:28.899Z,96890.69
2019-03-09T06:31:00.199Z,96905.36
2019-03-09T06:33:36.091Z,96907.28
2019-03-09T06:36:25.601Z,96900.00
2019-03-09T06:39:48.482Z,96906.48
2019-03-09T06:42:58.473Z,96914.26
2019-03-09T06:45:29.869Z,96921.52
2019-03-09T06:48:01.031Z,96925.06
2019-03-09T06:50:32.701Z,96932.78
2019-03-09T06:53:04.455Z,96939.74
2019-03-09T06:55:35.860Z,96946.83
2019-03-09T06:58:07.112Z,96951.99
2019-03-09T07:00:41.209Z,96948.62
2019-03-09T07:03:13.020Z,96949.91
2019-03-09T07:05:44.340Z,96972.98
2019-03-09T07:08:16.006Z,96964.08
2019-03-09T07:10:47.257Z,96968.59
2019-03-09T07:13:18.555Z,96978.42
2019-03-09T07:15:50.024Z,96967.22
2019-03-09T07:18:32.465Z,96993.19
2019-03-09T07:21:03.850Z,96981.33
2019-03-09T07:23:35.144Z,96993.77
2019-03-09T07:26:07.650Z,96995.06
2019-03-09T07:28:39.040Z,97004.18
2019-03-09T07:31:10.372Z,97016.27
2019-03-09T07:33:41.956Z,97016.14
2019-03-09T07:36:13.354Z,96998.06
2019-03-09T07:38:44.623Z,97002.83
2019-03-09T07:41:16.124Z,97020.84
2019-03-09T07:43:47.347Z,97016.53
2019-03-09T07:46:18.602Z,97029.21
2019-03-09T07:48:49.768Z,97027.59
2019-03-09T07:51:21.021Z,97031.92
2019-03-09T07:53:52.403Z,97039.71
2019-03-09T07:56:23.764Z,97035.44
2019-03-09T07:58:55.027Z,97036.34
2019-03-09T08:01:26.553Z,97031.28
2019-03-09T08:03:58.781Z,97034.41
2019-03-09T08:06:30.038Z,97034.00
2019-03-09T08:09:01.494Z,97035.08
2019-03-09T08:11:34.731Z,97042.80
2019-03-09T08:14:06.125Z,97035.17
2019-03-09T08:16:37.555Z,97028.41
2019-03-09T08:19:08.874Z,97016.52
2019-03-09T08:21:40.125Z,97011.04
2019-03-09T08:24:11.372Z,97013.34
2019-03-09T08:26:42.733Z,97041.60
2019-03-09T08:29:13.898Z,97015.03
2019-03-09T08:31:45.480Z,96998.05
2019-03-09T08:34:16.983Z,97007.50
2019-03-09T08:36:48.593Z,97009.33
2019-03-09T08:39:20.199Z,97043.25
2019-03-09T08:41:51.760Z,97031.77
2019-03-09T08:44:22.946Z,97026.92
2019-03-09T08:46:54.167Z,97037.06
2019-03-09T08:49:25.681Z,97027.14
2019-03-09T08:51:57.242Z,97040.07
2019-03-09T08:54:28.595Z,97045.20
2019-03-09T08:56:59.774Z,97052.01
2019-03-09T08:59:31.052Z,97056.15
2019-03-09T09:02:02.285Z,97044.41
2019-03-09T09:04:34.792Z,97050.13
2019-03-09T09:07:06.244Z,97044.53
2019-03-09T09:09:37.795Z,97040.27
2019-03-09T09:12:09.306Z,97062.12
2019-03-09T09:14:40.580Z,97057.51
2019-03-09T09:17:12.222Z,97060.59
2019-03-09T09:19:43.804Z,97063.57
2019-03-09T09:22:15.315Z,97057.14
2019-03-09T09:24:46.639Z,97067.44
2019-03-09T09:27:17.962Z,97056.38
2019-03-09T09:29:49.540Z,97061.32
2019-03-09T09:32:20.782Z,97062.66
2019-03-09T09:34:52.117Z,97064.41
2019-03-09T09:37:23.513Z,97056.38
2019-03-09T09:39:54.883Z,97064.92
2019-03-09T09:42:26.871Z,97068.01
2019-03-09T09:44:58.108Z,97078.54
2019-03-09T09:47:29.642Z,97077.58
2019-03-09T09:50:00.948Z,97078.36
2019-03-09T09:52:32.273Z,97068.88
2019-03-09T09:55:03.565Z,97067.22
2019-03-09T09:57:34.837Z,97076.75
2019-03-09T10:00:08.891Z,97072.52
2019-03-09T10:02:40.844Z,97069.94
2019-03-09T10:05:13.025Z,97089.26
2019-03-09T10:07:44.427Z,97095.70
2019-03-09T10:10:17.625Z,97094.45
2019-03-09T10:12:48.971Z,97081.70
2019-03-09T10:15:23.478Z,97082.73
2019-03-09T10:17:54.987Z,97090.53
2019-03-09T10:20:26.343Z,97085.11
2019-03-09T10:23:03.993Z,97074.97
2019-03-09T10:25:31.714Z,97074.08
2019-03-09T10:28:03.113Z,97064.29
2019-03-09T10:30:35.187Z,97069.23
2019-03-09T10:33:06.609Z,97060.80
2019-03-09T10:35:38.452Z,97060.84
2019-03-09T10:38:09.887Z,97056.05
2019-03-09T10:40:41.245Z,97046.20
2019-03-09T10:43:12.629Z,97049.24
2019-03-09T10:45:44.493Z,97046.19
2019-03-09T10:48:15.763Z,97056.94
2019-03-09T10:50:47.128Z,97032.81
2019-03-09T10:53:19.025Z,97032.38
2019-03-09T10:55:50.437Z,97053.95
2019-03-09T10:58:22.095Z,97055.71
2019-03-09T11:00:53.510Z,97065.11
2019-03-09T11:03:24.818Z,97070.36
2019-03-09T11:05:56.212Z,97055.07
2019-03-09T11:08:28.010Z,97057.30
2019-03-09T11:10:59.671Z,97047.93
2019-03-09T11:13:33.488Z,97058.28
2019-03-09T11:16:04.914Z,97053.05
2019-03-09T11:18:36.255Z,97048.34
2019-03-09T11:21:07.972Z,97040.18
2019-03-09T11:23:39.481Z,97045.80
2019-03-09T11:26:10.829Z,97039.29
2019-03-09T11:28:42.360Z,97036.26
2019-03-09T11:31:13.994Z,97040.57
2019-03-09T11:33:45.610Z,97046.21
2019-03-09T11:36:16.777Z,97047.09
2019-03-09T11:38:48.064Z,97050.94
2019-03-09T11:41:19.629Z,97048.73
2019-03-09T11:43:50.968Z,97039.70
2019-03-09T11:46:22.584Z,97028.50
2019-03-09T11:48:53.911Z,97042.28
2019-03-09T11:51:25.324Z,97054.25
2019-03-09T11:53:56.668Z,97039.20
2019-03-09T11:56:28.196Z,97037.05
2019-03-09T11:58:59.372Z,97040.46
2019-03-09T12:01:30.797Z,97038.34
2019-03-09T12:04:01.976Z,97026.30
2019-03-09T12:06:33.612Z,97021.99
2019-03-09T12:09:06.669Z,97028.47
2019-03-09T12:11:39.665Z,97036.63
2019-03-09T12:14:11.276Z,97049.13
2019-03-09T12:16:42.905Z,97040.89
2019-03-09T12:19:17.124Z,97034.00
2019-03-09T12:21:48.312Z,97022.41
2019-03-09T12:24:20.120Z,97022.86
2019-03-09T12:26:51.557Z,97012.98
2019-03-09T12:29:22.968Z,97018.16
2019-03-09T12:31:54.300Z,97018.59
2019-03-09T12:34:25.698Z,97020.27
2019-03-09T12:36:57.417Z,97007.80
2019-03-09T12:39:28.859Z,97007.80
2019-03-09T12:42:00.119Z,97001.30
2019-03-09T12:44:31.409Z,97006.50
2019-03-09T12:47:03.005Z,97005.63
2019-03-09T12:49:34.185Z,96998.67
2019-03-09T12:52:05.500Z,97007.77
2019-03-09T12:54:36.769Z,97006.87
2019-03-09T12:57:08.487Z,97016.73
2019-03-09T12:59:39.882Z,97027.47
2019-03-09T13:02:11.240Z,97032.61
2019-03-09T13:04:42.501Z,97025.75
2019-03-09T13:07:13.839Z,97019.32
2019-03-09T13:09:45.170Z,97023.59
2019-03-09T13:12:16.919Z,97019.74
2019-03-09T13:14:48.256Z,97015.87
2019-03-09T13:17:20.280Z,97003.38
2019-03-09T13:19:51.642Z,96992.67
2019-03-09T13:22:22.891Z,96991.84
2019-03-09T13:24:54.141Z,96982.37
2019-03-09T13:27:25.599Z,96991.86
2019-03-09T13:29:57.366Z,96994.86
2019-03-09T13:32:28.697Z,96990.11
2019-03-09T13:34:59.964Z,96984.53
2019-03-09T13:37:31.286Z,96981.09
2019-03-09T13:40:02.587Z,96964.77
2019-03-09T13:42:34.032Z,96966.48
2019-03-09T13:45:05.878Z,96977.66
2019-03-09T13:47:37.299Z,96988.44
2019-03-09T13:50:10.527Z,96985.00
2019-03-09T13:52:43.273Z,96983.67
2019-03-09T13:55:14.921Z,96980.67
2019-03-09T13:57:46.344Z,96981.11
2019-03-09T14:00:17.778Z,96971.20
2019-03-09T14:02:49.454Z,96957.86
2019-03-09T14:05:20.698Z,96949.67
2019-03-09T14:07:52.377Z,96938.92
2019-03-09T14:10:23.815Z,96940.64
2019-03-09T14:12:55.189Z,96950.11
2019-03-09T14:15:26.439Z,96943.22
2019-03-09T14:17:57.698Z,96933.30
2019-03-09T14:20:28.977Z,96933.31
2019-03-09T14:23:00.747Z,96918.67
2019-03-09T14:25:31.997Z,96922.56
2019-03-09T14:28:03.338Z,96907.48
2019-03-09T14:30:34.653Z,96916.97
2019-03-09T14:33:05.984Z,96907.50
2019-03-09T14:35:37.309Z,96895.44
2019-03-09T14:38:08.642Z,96874.78
2019-03-09T14:40:40.020Z,96861.42
2019-03-09T14:43:11.908Z,96873.06
2019-03-09T14:45:43.230Z,96849.83
2019-03-09T14:48:14.490Z,96849.38
2019-03-09T14:50:46.124Z,96822.27
2019-03-09T14:53:17.579Z,96826.59
2019-03-09T14:55:48.910Z,96807.66
2019-03-09T14:58:20.157Z,96802.48
2019-03-09T15:00:51.862Z,96791.29
2019-03-09T15:03:23.172Z,96786.58
2019-03-09T15:05:54.478Z,96790.02
2019-03-09T15:08:25.739Z,96788.28
2019-03-09T15:10:58.400Z,96799.90
2019-03-09T15:13:30.096Z,96815.37
2019-03-09T15:16:01.775Z,96822.70
2019-03-09T15:18:33.816Z,96817.98
2019-03-09T15:21:05.175Z,96808.91
2019-03-09T15:23:36.497Z,96802.45
2019-03-09T15:26:08.166Z,96789.48
2019-03-09T15:28:39.508Z,96797.59
2019-03-09T15:31:10.978Z,96783.77
2019-03-09T15:33:42.202Z,96791.02
2019-03-09T15:36:13.539Z,96802.08
2019-03-09T15:39:17.399Z,96813.59
2019-03-09T15:42:20.523Z,96812.78
2019-03-09T15:45:14.058Z,96806.68
2019-03-09T15:48:06.480Z,96796.89
2019-03-09T15:51:02.981Z,96785.74
2019-03-09T15:54:33.844Z,96787.39
2019-03-09T15:57:34.598Z,96775.37
2019-03-09T16:00:25.373Z,96772.82
2019-03-09T16:03:15.027Z,96773.62
2019-03-09T16:06:10.228Z,96772.37
2019-03-09T16:09:19.870Z,96764.67
2019-03-09T16:12:14.584Z,96750.98
2019-03-09T16:15:02.260Z,96755.70
2019-03-09T16:17:59.681Z,96748.02
2019-03-09T16:22:03.214Z,96748.05
2019-03-09T16:24:22.105Z,96738.58
2019-03-09T16:27:11.781Z,96757.47
2019-03-09T16:29:42.930Z,96755.76
2019-03-09T16:32:14.171Z,96743.75
2019-03-09T16:34:45.616Z,96751.90
2019-03-09T16:37:17.738Z,96739.47
2019-03-09T16:39:48.983Z,96730.01
2019-03-09T16:42:20.391Z,96722.27
2019-03-09T16:44:51.742Z,96730.91
2019-03-09T16:47:23.060Z,96736.91
2019-03-09T16:49:54.391Z,96724.86
2019-03-09T16:52:25.650Z,96700.42
2019-03-09T16:54:56.850Z,96718.46
2019-03-09T16:57:28.718Z,96747.27
2019-03-09T16:59:59.937Z,96752.44
2019-03-09T17:02:31.269Z,96745.98
2019-03-09T17:05:03.723Z,96745.16
2019-03-09T17:07:35.458Z,96707.33
2019-03-09T17:10:07.384Z,96723.66
2019-03-09T17:12:39.677Z,96739.98
2019-03-09T17:15:12.257Z,96709.91
2019-03-09T17:17:43.911Z,96707.34
2019-03-09T17:20:17.686Z,96695.73
2019-03-09T17:22:49.592Z,96681.15
2019-03-09T17:25:21.270Z,96698.75
2019-03-09T17:27:52.856Z,96692.34
2019-03-09T17:30:24.250Z,96698.77
2019-03-09T17:32:55.700Z,96694.92
2019-03-09T17:35:32.654Z,96682.02
2019-03-09T17:38:04.032Z,96691.86
2019-03-09T17:40:36.450Z,96697.02
2019-03-09T17:43:07.776Z,96682.00
2019-03-09T17:45:39.019Z,96681.13
2019-03-09T17:48:10.712Z,96669.95
2019-03-09T17:50:42.346Z,96688.86
2019-03-09T17:53:14.178Z,96678.10
2019-03-09T17:55:45.743Z,96695.28
2019-03-09T17:58:17.397Z,96716.31
2019-03-09T18:00:48.802Z,96712.88
2019-03-09T18:03:20.513Z,96725.77
2019-03-09T18:05:51.756Z,96728.31
2019-03-09T18:08:22.940Z,96749.32
2019-03-09T18:11:01.252Z,96747.17
2019-03-09T18:13:32.596Z,96778.98
2019-03-09T18:16:04.260Z,96791.91
2019-03-09T18:18:35.871Z,96806.97
2019-03-09T18:21:07.267Z,96812.59
2019-03-09T18:23:38.599Z,96798.86
2019-03-09T18:26:09.914Z,96804.87
2019-03-09T18:28:41.518Z,96806.59
2019-03-09T18:31:12.871Z,96797.18
2019-03-09T18:33:44.197Z,96796.76
2019-03-09T18:36:15.456Z,96794.63
2019-03-09T18:38:46.764Z,96808.42
2019-03-09T18:41:17.998Z,96800.31
2019-03-09T18:43:49.511Z,96786.98
2019-03-09T18:46:20.798Z,96799.90
2019-03-09T18:48:52.214Z,96799.44
2019-03-09T18:51:23.972Z,96791.72
2019-03-09T18:53:55.730Z,96784.41
2019-03-09T18:56:27.149Z,96785.65
2019-03-09T18:58:58.417Z,96793.81
2019-03-09T19:01:29.776Z,96794.23
2019-03-09T19:04:01.260Z,96808.47
2019-03-09T19:06:32.591Z,96820.45
2019-03-09T19:09:05.939Z,96825.97
2019-03-09T19:11:37.512Z,96837.56
2019-03-09T19:14:08.852Z,96839.69
2019-03-09T19:16:40.209Z,96846.11
2019-03-09T19:19:11.570Z,96851.77
2019-03-09T19:21:42.903Z,96853.94
2019-03-09T19:24:14.259Z,96857.36
2019-03-09T19:26:45.517Z,96878.84
2019-03-09T19:29:18.196Z,96859.13
2019-03-09T19:31:49.542Z,96896.95
2019-03-09T19:34:21.050Z,96893.93
2019-03-09T19:36:52.461Z,96909.41
2019-03-09T19:39:23.796Z,96907.27
2019-03-09T19:41:55.183Z,96921.50
2019-03-09T19:44:26.448Z,96916.72
2019-03-09T19:46:57.718Z,96914.96
2019-03-09T19:49:28.971Z,96916.72
2019-03-09T19:52:00.684Z,96921.48
2019-03-09T19:54:31.943Z,96930.95
2019-03-09T19:57:03.525Z,96914.61
2019-03-09T19:59:34.861Z,96942.06
2019-03-09T20:02:06.285Z,96946.77
2019-03-09T20:04:37.768Z,96940.36
2019-03-09T20:07:09.127Z,96938.22
2019-03-09T20:09:40.448Z,96948.54
2019-03-09T20:12:12.142Z,96952.84
2019-03-09T20:14:43.495Z,96935.20
2019-03-09T20:17:14.940Z,96955.06
2019-03-09T20:19:46.222Z,96949.48
2019-03-09T20:22:17.496Z,96957.21
2019-03-09T20:24:48.751Z,96971.83
2019-03-09T20:27:20.452Z,96962.70
2019-03-09T20:29:52.840Z,96973.91
2019-03-09T20:32:24.528Z,96969.61
2019-03-09T20:34:55.795Z,96957.07
2019-03-09T20:37:27.214Z,96974.28
2019-03-09T20:39:58.740Z,96978.16
2019-03-09T20:42:30.103Z,96986.31
2019-03-09T20:45:01.355Z,97003.54
2019-03-09T20:47:33.510Z,97001.78
2019-03-09T20:50:05.498Z,97013.39
2019-03-09T20:52:36.846Z,97013.83
2019-03-09T20:55:08.579Z,97011.22
2019-03-09T20:57:39.994Z,96995.78
2019-03-09T21:00:15.145Z,97020.28
2019-03-09T21:02:48.221Z,97041.39
2019-03-09T21:05:19.794Z,97018.98
2019-03-09T21:07:51.262Z,97022.49
2019-03-09T21:10:22.871Z,97028.58
2019-03-09T21:13:00.174Z,97028.91
2019-03-09T21:15:32.652Z,97035.41
2019-03-09T21:18:04.046Z,97048.23
2019-03-09T21:20:35.538Z,97000.22
2019-03-09T21:23:07.023Z,97040.57
2019-03-09T21:25:38.425Z,97052.99
2019-03-09T21:28:09.870Z,97053.41
2019-03-09T21:30:41.131Z,97044.38
2019-03-09T21:33:12.464Z,97052.54
2019-03-09T21:35:43.811Z,97048.20
2019-03-09T21:38:15.107Z,97038.78
2019-03-09T21:40:46.470Z,97043.09
2019-03-09T21:43:20.602Z,97055.57
2019-03-09T21:45:51.403Z,97060.22
2019-03-09T21:48:22.699Z,97057.70
2019-03-09T21:50:54.060Z,97055.12
2019-03-09T21:53:25.519Z,97060.73
2019-03-09T21:55:56.898Z,97068.02
2019-03-09T21:58:28.175Z,97059.35
2019-03-09T22:00:59.772Z,97064.86
2019-03-09T22:03:31.400Z,97065.31
2019-03-09T22:06:06.337Z,97080.02
2019-03-09T22:08:36.657Z,97069.19
2019-03-09T22:11:07.852Z,97092.73
2019-03-09T22:13:39.119Z,97086.67
2019-03-09T22:16:10.726Z,97081.52
2019-03-09T22:18:42.079Z,97079.88
2019-03-09T22:21:13.377Z,97073.88
2019-03-09T22:23:45.717Z,97076.88
2019-03-09T22:26:16.953Z,97075.17
2019-03-09T22:28:48.295Z,97069.59
2019-03-09T22:31:20.652Z,97075.23
2019-03-09T22:33:52.381Z,97061.93
2019-03-09T22:36:24.090Z,97055.06
2019-03-09T22:38:55.714Z,97063.64
2019-03-09T22:41:27.213Z,97058.35
2019-03-09T22:43:58.505Z,97070.30
2019-03-09T22:46:30.167Z,97074.16
2019-03-09T22:49:01.355Z,97071.17
2019-03-09T22:51:32.648Z,97079.28
2019-03-09T22:54:04.059Z,97076.25
2019-03-09T22:56:36.384Z,97081.40
2019-03-09T22:59:07.656Z,97082.65
2019-03-09T23:01:39.190Z,97079.62
2019-03-09T23:04:10.436Z,97070.56
2019-03-09T23:06:42.192Z,97084.27
2019-03-09T23:09:13.438Z,97080.83
2019-03-09T23:11:47.452Z,97082.94
2019-03-09T23:14:19.279Z,97068.36
2019-03-09T23:16:50.692Z,97082.52
2019-03-09T23:19:22.118Z,97078.25
2019-03-09T23:21:53.801Z,97073.09
2019-03-09T23:24:25.056Z,97086.39
2019-03-09T23:26:56.398Z,97101.94
2019-03-09T23:29:27.708Z,97090.71
2019-03-09T23:31:59.124Z,97088.14
2019-03-09T23:34:30.613Z,97095.83
2019-03-09T23:37:02.342Z,97091.13
2019-03-09T23:39:34.544Z,97086.81
2019-03-09T23:42:05.927Z,97086.84
2019-03-09T23:44:37.356Z,97083.40
2019-03-09T23:47:09.019Z,97085.06
2019-03-09T23:49:40.454Z,97078.62
2019-03-09T23:52:12.260Z,97082.02
2019-03-09T23:54:44.028Z,97074.75
2019-03-09T23:57:15.405Z,97069.14
2019-03-09T23:59:46.817Z,97079.37
